[Jeden Montag | 1730z - 2030z | EDDN] Nürnberg Montag

Zu Eventkalender hinzugefügt: 543 Daten

Michael Wellner

1024937
VFR - Moderator
Bei endlich wieder angenehmeren Temperaturen erwartet Euch heute wie in jeder Woche am Nürnberg-Montag die Crew der RG München am "Albrecht-Dürer-Airport" und lädt Euch herzlich ab 1930lcl - also 1730z nach Nürnberg ein.
Wind und Wolken halten sich in Grenzen und laden alle VFR-Piloten zu einem entspannten Lokalflug ein. Für die IFR-Piloten bietet sich ein Flug nach Düsseldorf an, wo sie von der ATC-Crew bereits erwartet werden.
METAR:
EDDN 240850Z 28004KT 230V320 9999 FEW033 19/11 Q1018 NOSIG

TAF:
EDDN 240500Z 2406/2506 22004KT CAVOK BECMG 2409/2411 26009KT BECMG 2418/2420 16004KT
--
RG-Muenchen_Events.png

_________________VATSim-Germany / RG München / Event-Department
 
Zuletzt bearbeitet:

Michael Wellner

1024937
VFR - Moderator
Wie in jeder Woche am Nürnberg-Montag lädt Euch die Crew der RG München am "Albrecht-Dürer-Airport" herzlich ab 1930lcl - also 1730z nach Nürnberg ein.


METAR:
EDDN 311320Z VRB02KT 9999 FEW023TCU 17/11 Q1017 NOSIG

TAF:
EDDN 311100Z 3112/0112 22004KT 9999 SCT015 BKN035 BECMG 3112/3114 30007KT BECMG 3117/3119 36004KT TEMPO 3120/0112 3500 SHRA BKN009 BKN020CB
--
RG-Muenchen_Events.png

_________________VATSim-Germany / RG München / Event-Department
 
Zuletzt bearbeitet:

Michael Wellner

1024937
VFR - Moderator
Die Woche beginnt und wie immer am Nürnberg-Montag lädt Euch die Crew der RG München am "Albrecht-Dürer-Airport" herzlich ab 1930lcl - also 1730z nach Nürnberg ein.
Bei nur leichter Bewölkung und mäßigem Wind sind die An- und Abflüge diesmal auch wieder für unsere Sichtflug-Piloten durchaus geeignet und laden zu den ersten herbstlichen Flügen in diesem Jahr ein. Für das Dickblech bietet sich wieder der Flug nach Düsseldorf an, oder auch mal ein Flug in die Hauptstadt, wo der Flughafen Tegel kurz vor seiner Schließung auch heute nochmal besetzt ist.

METAR:
EDDN 070920Z 01005KT 290V050 9999 FEW045 18/07 Q1024 NOSIG

TAF:
EDDN 070500Z 0706/0806 VRB03KT 9999 FEW030 BECMG 0707/0709 35005KT BECMG 0716/0718 11004KT
--
RG-Muenchen_Events.png

_________________VATSim-Germany / RG München / Event-Department
 
Zuletzt bearbeitet:

Jan Dylla

1378091
RG München - Event
RG München - Mentor
nuremberg-monday_s.png


Der morgendliche Nebel hat sich verzogen und es ist inzwischen perfektes Wetter zum Fliegen! Wie passend, dass da gerade heute wieder Nürnberg-Montag ist! Die RG München lädt euch herzlich ab 1930lcl - also 1730z nach Nürnberg zum Albrecht-Dürer-Airport ein!
Bei strahlend blauem Himmel und mäßigem Wind aus Osten, könnten die Bedingungen kaum besser sein um ein paar Runden in der Kontrollzone von EDDN zu kreisen und Anflüge zu üben. Für die Kollegen, die lieber nach instrumentalen Flugregeln durch den Himmel düsen bietet sich, wie eigentlich jeden Montag, wieder die Kurzstrecke nach Düsseldorf (icao EDDL) an!
Für welche Variante ihr euch auch entscheidet - wir freuen uns auf euch, wenn es wieder heißt: ... servus, Nürnberg - Identified!

METAR:
EDDN 141550Z 08007KT 030V120 CAVOK 29/12 Q1024 NOSIG

TAF:
EDDN 141100Z 1412/1512 11008KT CAVOK BECMG 1417/1419 11003KT BECMG 1510/1512 19005KT
--
 
Wie wär's mit etwas VFR im Frankenland?
erGp5Oi.jpg

Wir basteln grad an nem kml für Little NavMap für ganz Deutschland in dem alle VFR Verfahren inkl. Platzrunden für Segelflug und UL drin sind - ist noch nicht perfekt, aber denk ich schon nutzbar:
Blau ist normalerweise Motorflug, gelb Segelflug und rot UL, schwarz = Abflüge, grün = Anflüge.
Teilweise ist bei reinen Segelflug- bzw. UL-Plätzen statt gelb mit blau kodiert - das ist noch ein Problem mit dem Input. Für die RMZ und andere Lufträume sofern sie bei euch fehlen einfach das openair file von openflightmaps nehmen -> desktop.stepla funktioniert da gut. PMPs hatte ich noch aus einer anderen Quelle (Friesen?), das könnten wir aber künftig wohl auch automatisch erzeugen. More to come und work in progress - kann also auch sein, dass da kurzfristig sich mal noch am Link was ändert etc. - das würd ich gern später über die HP bereitgestellen, wenn's mal soweit erwachsen ist.

Cheers
Micha und riesen Dank an @Frank Helmschrott schon mal für die bisherigen Basteleien!
 

Michael Wellner

1024937
VFR - Moderator
Es ist wieder Nürnberg-Montag und die Crew der RG München lädt alle Piloten wieder am "Albrecht-Dürer-Airport" herzlich ab 1930lcl - also 1730z zu möglichst zahlreichen Flügen von und nach nach Nürnberg ein.
Was erwartet Euch heute? Natürlich wieder erstklassiger Service rund um die Lebkuchenstadt in Franken und das bei absolut wolkenfreiem Himmel. Eine gute Gelegenheit für alle VFR-Piloten, von Nürnberg aus die vielen kleinen Plätze rundherum zu erkunden und neben Lebkuchen für die bevorstehende Weihnachtszeit vielleicht auch die eine oder andere Sportbekleidung aus Herzogenaurach (EDQH) mitzubringen.
Und für die Linienflieger bietet sich wieder ein Flug nach Düsseldorf (EDDL) oder wen es weiter in den Norden zieht auch nach Hamburg (EDDH) an.

METAR:
EDDN 211420Z VRB02KT CAVOK 24/10 Q1015 NOSIG

TAF:
EDDN 211100Z 2112/2212 VRB03KT CAVOK
--
RG-Muenchen_Events.png

_________________VATSim-Germany / RG München / Event-Department
 
Zuletzt bearbeitet:

Michael Wellner

1024937
VFR - Moderator
Wie zu jedem Wochenbeginn findet auch heute wieder der Nürnberg-Montag statt und die Crew der RG München lädt alle Piloten am "Albrecht-Dürer-Airport" herzlich ab 1930lcl - also 1730z zu möglichst zahlreichen Flügen von und nach nach Nürnberg ein.
Neben Düsseldorf (EDDL) bieten sich heute mit Bremen (EDDW), Hamburg (EDDH) und Leipzig (EDDP) noch drei weitere Flughäfen für einen Linienflug an. Und letzterer wäre ja auch für unsere VFR-Piloten noch gut zu erreichen, die sich dann aber gekonnt durch die Wolken in 2000ft Höhe schlängeln müssten.

METAR:
EDDN 281320Z VRB02KT 9999 FEW033 14/07 Q1011 NOSIG

TAF:
EDDN 281100Z 2812/2912 VRB03KT 9999 FEW020 TEMPO 2911/2912 BKN014
--
RG-Muenchen_Events.png

_________________VATSim-Germany / RG München / Event-Department
 
Zuletzt bearbeitet:

Samy Greve

874505
ATD - Prüfer
RG München - Event
RG München - NAV
RG München - Mentor
nuremberg-monday_s.png


Zum Start der Wochen laden wir euch wieder herzlich heute Abend ab 1930 lokal nach Nürnberg ein! Das Wetter ist in fat Deutschland Grau in Grau, sodass wir uns fast nix besseres wie einen Besuch in Nürnberg vorstellen können :D

EDDN 050500Z 0506/0606 VRB03KT 9999 SCT040 BECMG 0508/0510 23008KT BECMG 0515/0517 17007KT
 

Samy Greve

874505
ATD - Prüfer
RG München - Event
RG München - NAV
RG München - Mentor
nuremberg-monday_s.png


Auch heute Abend ist wieder "Nürnberg Montag" - ab 1930 Uhr Lokal erwarten euch, wie die letzten Wochen auch, ein voll gestaffter Airport in Nürnberg!

Viel Spaß allen Beteiligten heute Abend! :)
 

Samy Greve

874505
ATD - Prüfer
RG München - Event
RG München - NAV
RG München - Mentor
Zum Start der Woche laden wir euch wieder herzlich zum "Nürnberg Montag" ein! Ab 1930 Lcl wird der Flughafen Nürnberg (EDDN) wieder mind. 3h besetzt sein.
EDDN 260728Z 2607/2706 20004KT 9999 BKN007 BECMG 2608/2610 28007KT FEW012 BKN035 TEMPO 2610/2621 RA BKN012 BECMG 2620/2622 17005KT
 
Zuletzt bearbeitet:

Samy Greve

874505
ATD - Prüfer
RG München - Event
RG München - NAV
RG München - Mentor
nuremberg_monday.jpg


Willkommen in einer neuen Woche - willkommen zum bekannten Nürnberg Montag! Ab 1930 Lokal ist der Flughafen Nürnberg wieder für mindestens 3 Stunden mit ATC für euch besetzt. Wie auch sonst Montags bietet sich die Rennstrecke nach Düsseldorf zum Onlineday an.

EDDN 020500Z 0206/0306 16005KT 9999 BKN030 BECMG 0208/0210 22008KT BECMG 0216/0218 16003KT BECMG 0302/0304 32006KT PROB30 TEMPO 0302/0305 BKN012

Bis heute Abend!
 
Was haben wie heute noch so an Onlinedays im Angebot?

Düsseldorf:
EDDN-EDDL: SULUS L604 MASEK Z52 ARPEG Z850 ADEMI T854 DOMUX
EDDL-EDDN: KUMIK L603 TESGA Z719 ETOLU Z723 KOMIB T193 ERTES

Budapest:
EDDN-LHBP: RODIS L604 LAMSI DCT PESAT DCT VAJDI
LHBP-EDDN: GILEP DCT ZOLKU DCT ARSIN DCT SUBEN T161 AKINI

Debrecen:
EDDN-LHDC: RODIS L604 LAMSI DCT MAREG DCT TOVKA DCT PATAK DCT PERIT
LHDC-EDDN: PERIT DCT PATAK DCT TOVKA DCT SUBEN T161 AKINI

Heviz, Balaton (Sarmellek):
EDDN-LHSM: RODIS L604 LAMSI DCT SASAL DCT SME
LHSM-EDDN: NALOX DCT SUNIS DCT NURMI DCT SUBEN T161 AKINI
 
Wir wirklich ein schöner Abend gestern - in Nürnberg fühlen sich die 40 Arrivals (ohne die Trainingsrunden) gestern halt direkt wie 60 in z.B. München an. Hat Spaß gemacht!
Hier mal wieder etwas mit dem Great Circle Mapper gespielt um's zu illustrieren - bin da noch immer auf der Suche nach einer schönen Variante die Zahlen eines Abends schön auf einer Karte zur veranschaulichen. :)

Departures Nürnberg - 26, davon 7 nach Düsseldorf und 4 nach Wien und Budapest:
X7lGvHm.jpg


Arrivals Nürnberg - 40, davon 19 aus Düsseldorf und 9 aus Budapest
Xn7XMa5.jpg

Maps generated by the Great Circle Mapper - copyright © Karl L. Swartz. (Departures, Arrivals)

Gruß
Micha
 
Zuletzt bearbeitet:

Jannik Vogel

1432304
RG München - NAV
RG München - Mentor
Ich bin zwar kein Eventler, habe aber heute dennoch die Ehre euch zum wöchentlichen Onlinetag des mittelfränkischen Albrecht-Dürer Airports in Nürnberg (EDDN) einzuladen. Die Controller freuen sich ab 1930 Lokal auf euren Besuch und das Wetter verspricht heute einige spannende Anflüge, bei denen die Piste vielleicht erst kurz vor dem Minimum zu sehen ist. Schaut also gerne vorbei und plant euren abendlichen Flug von oder nach Nürnberg!

EDDN 091100Z 0912/1012 14005KT 9999 FEW003 PROB30 TEMPO 0912/0917 4000 BR OVC003 BECMG 0917/0919 4000 BR OVC003 TEMPO 0918/1009 0800 FG PROB30 TEMPO 0918/1009 OVC001 BECMG 1009/1011 OVC006 PROB30 TEMPO 1010/1012 BKN010
 
Und hier wieder ein paar Routen für heute Abend - nicht so viele Events/Onlinedays:

Düsseldorf Monday (1800z-2100z):
EDDN-EDDL (FL080-240, 225nm): SULUS L604 MASEK Z52 ARPEG Z850 ADEMI T854 DOMUX
EDDL-EDDN (FL190-230, 208nm): KUMIK L603 TESGA Z719 ETOLU Z723 KOMIB T193 ERTES

TURNaround Budapest (1800z-2100z):
EDDN-LHBP (FL090-410, 360nm): RODIS L604 LAMSI DCT PESAT DCT VAJDI
LHBP-EDDN (FL080-430, 362nm): GILEP DCT ZOLKU DCT ARSIN DCT SUBEN T161 AKINI
EDDN-LHDC (FL250-410, 468nm): RODIS L604 LAMSI DCT MAREG DCT TOVKA DCT PATAK DCT PERIT
LHDC-EDDN (FL226-430, 465nm): PERIT DCT PATAK DCT TOVKA DCT SUBEN T161 AKINI
EDDN-LHSM (FL090-410, 307nm): RODIS L604 LAMSI DCT SASAL DCT SME
LHSM-EDDN (FL100-430, 300nm): NALOX DCT SUNIS DCT NURMI DCT SUBEN T161 AKINI
 

Samy Greve

874505
ATD - Prüfer
RG München - Event
RG München - NAV
RG München - Mentor
nuremberg_monday.jpg


Wir laden euch heute wieder zum Wochenstart zu unserem Nürnberg Montag ein! Ab 1930 Uhr Lokal ist der Flughafen Nürnberg wieder 1A besetzt und freut sich auf euren Besuch!

Zusätzlich zu dem Onlinetag in Düsseldorf bietet sich heute die Strecke nach Budapest (LHBP) an, die heute Abend ein Shuttle Event nach Düsseldorf haben. Also dort sollte auch ein TOP Besetzung auf euch warten.

Wie immer ihr auch euch entscheidet: Guten Wochenstart und bis heute Abend!

EDDN 160500Z 1606/1706 22005KT 9999 BKN030 BECMG 1607/1609 24010KT PROB30 TEMPO 1611/1614 25015G25KT BECMG 1616/1618 24005KT PROB30 TEMPO 1622/1703 BKN012 BECMG 1704/1706 18004KT
 

Samy Greve

874505
ATD - Prüfer
RG München - Event
RG München - NAV
RG München - Mentor
nuremberg_monday.jpg


EDDN 231100Z 2312/2412 28004KT 9000 BKN007 PROB40 TEMPO 2314/2319 SCT010 BKN030 BECMG 2318/2320 13005KT TEMPO 2323/2408 3500 BR OVC004 BECMG 2410/2412 BKN012

Mit unspektakulärem Wetter, dafür aber mit voller Motivation zum Wochenstart möchten wir euch heute Abend ab 1830z wieder herzlich zum Nürnberg Montag einladen! Passend, wie jeden Montag bietet sich natürlich die Rennstrecke nach Düsseldorf an.

Zusätzlich haben wir heute Abend in München 2 Trainees, die mit ihrer Ausbildung weiter machen - auch diese Rennstrecke (knapp 15 Minuten Flugzeit) bietet sich natürlich an.

Wir freuen uns - bis heute Abend!
 
Domestic Citypairs Bristol-Edinburgh (1700z-2000z):
EDDN-EGPH (FL280-430, 659nm): SULUS L604 MAPOX DCT GODOS M981 NATEB Y96 AGPED
EGPH-EDDN (FL270-410, 681nm): TLA Y96 NATEB N97 ROKAN DCT TOPPA DCT GMH UL603 TESGA Z719 ETOLU Z723 KOMIB T193 ERTES
EDDN-EGGD (FL280-430, 547nm): IBAGA Y101 OSBIT L984 LOHRE DCT ADKUV DCT DENUT L610 KOPUL Q63 CPT
EGGD-EDDN (FL290-410, 567nm): BADIM Q63 KENET UL9 KONAN UL607 AMASI UM149 BOMBI Z723 KOMIB T193 ERTES

Düsseldorf Monday (1800z-2100z):
EDDN-EDDL (FL080-240, 225nm): SULUS L604 MASEK Z52 ARPEG Z850 ADEMI T854 DOMUX
EDDL-EDDN (FL190-230, 208nm): KUMIK L603 TESGA Z719 ETOLU Z723 KOMIB T193 ERTES

TURNaround Budapest (1800z-2100z):
EDDN-LHBP (FL090-410, 360nm): RODIS L604 LAMSI DCT PESAT DCT VAJDI
LHBP-EDDN (FL080-430, 362nm): GILEP DCT ZOLKU DCT ARSIN DCT SUBEN T161 AKINI
EDDN-LHDC (FL250-410, 468nm): RODIS L604 LAMSI DCT MAREG DCT TOVKA DCT PATAK DCT PERIT
LHDC-EDDN (FL226-430, 465nm): PERIT DCT PATAK DCT TOVKA DCT SUBEN T161 AKINI
EDDN-LHSM (FL090-410, 307nm): RODIS L604 LAMSI DCT SASAL DCT SME
LHSM-EDDN (FL100-430, 300nm): NALOX DCT SUNIS DCT NURMI DCT SUBEN T161 AKINI
 

Samy Greve

874505
ATD - Prüfer
RG München - Event
RG München - NAV
RG München - Mentor
nuremberg_monday.jpg


Pünktlich zum Start der Woche laden wir wieder zum Nürnberg Montag ab 1930 Lokal ein. Der Airport ist, wie immer, 1A besetzt und freut sich auf euren Besuch.

Auch heute wieder findet in Ungarn der Onlineday statt, sodass die oben verfügbaren Routen von Michael weiterhin gültig sind.
 
Oben